Time;durP1;ratioP1;P1;durP2;ratioP2;P2;SDS_P1;SDS_P2;PMS_P1;PMS_P2;Temp;Humidity;BMP_temperature;BMP_pressure;BME280_temperature;BME280_humidity;BME280_pressure;Samples;Min_cycle;Max_cycle;Signal;HPM_P1;HPM_P2
2021/01/21 00:00:29;;;;;;;5.77;3.33;;;5.60;75.70;;;;;;4873678;29;20092;-74
2021/01/21 00:02:54;;;;;;;4.93;2.67;;;5.50;76.20;;;;;;4866207;29;20124;-74
2021/01/21 00:05:20;;;;;;;6.43;2.90;;;5.40;76.30;;;;;;4894695;29;20407;-74
2021/01/21 00:07:46;;;;;;;8.40;3.63;;;5.40;76.20;;;;;;4879085;29;20462;-73
2021/01/21 00:10:12;;;;;;;6.13;3.13;;;5.40;76.20;;;;;;4892259;29;20040;-74
2021/01/21 00:12:38;;;;;;;6.43;3.13;;;5.50;75.90;;;;;;4894132;29;20462;-77
2021/01/21 00:15:04;;;;;;;5.53;3.03;;;5.50;76.00;;;;;;4892340;29;20028;-74
2021/01/21 00:17:30;;;;;;;7.50;3.30;;;5.50;75.40;;;;;;4894056;29;20112;-75
2021/01/21 00:19:56;;;;;;;9.23;3.93;;;5.60;75.30;;;;;;4895284;29;20629;-74
2021/01/21 00:22:21;;;;;;;7.97;3.70;;;5.60;75.40;;;;;;4892556;29;20435;-76
2021/01/21 00:24:47;;;;;;;6.33;3.70;;;5.60;75.20;;;;;;4883002;29;20118;-75
2021/01/21 00:27:12;;;;;;;6.43;3.80;;;5.70;75.60;;;;;;4910922;29;20063;-76
2021/01/21 00:29:38;;;;;;;7.07;3.90;;;5.70;75.40;;;;;;4883447;29;20054;-75
2021/01/21 00:32:04;;;;;;;6.50;3.90;;;5.80;74.90;;;;;;4895636;29;20033;-74
2021/01/21 00:34:30;;;;;;;7.83;4.70;;;5.90;74.10;;;;;;4886971;29;20083;-75
2021/01/21 00:36:55;;;;;;;7.00;4.00;;;5.90;73.60;;;;;;4889133;29;20025;-76
2021/01/21 00:39:21;;;;;;;6.90;3.63;;;5.90;73.20;;;;;;4899026;29;20382;-75
2021/01/21 00:41:46;;;;;;;7.50;3.73;;;6.00;72.90;;;;;;4895876;29;20127;-75
2021/01/21 00:44:12;;;;;;;7.80;3.40;;;6.00;72.70;;;;;;4902395;29;20039;-75
2021/01/21 00:46:38;;;;;;;7.40;3.40;;;6.00;72.10;;;;;;4908167;29;20470;-77
2021/01/21 00:49:04;;;;;;;7.80;3.70;;;6.00;71.70;;;;;;4909037;29;20040;-76
2021/01/21 00:51:30;;;;;;;7.73;3.67;;;6.00;71.60;;;;;;4882984;29;20029;-75
2021/01/21 00:53:55;;;;;;;7.00;3.47;;;6.00;71.70;;;;;;4883655;29;20458;-75
2021/01/21 00:56:21;;;;;;;5.10;3.13;;;6.00;71.90;;;;;;4886285;29;20435;-76
2021/01/21 00:58:46;;;;;;;7.93;3.50;;;5.90;72.80;;;;;;4904964;29;20035;-73
2021/01/21 01:01:13;;;;;;;6.40;3.80;;;5.90;72.10;;;;;;4902558;29;20072;-74
2021/01/21 01:03:38;;;;;;;4.97;3.27;;;6.00;71.90;;;;;;4912137;29;20474;-73
2021/01/21 01:06:07;;;;;;;7.10;3.60;;;5.90;71.80;;;;;;4895184;29;20151;-73
2021/01/21 01:08:34;;;;;;;7.00;3.47;;;6.00;71.90;;;;;;4890889;29;20031;-74
2021/01/21 01:11:00;;;;;;;6.77;3.30;;;6.00;72.70;;;;;;4874134;29;20395;-73
2021/01/21 01:13:25;;;;;;;9.60;3.80;;;6.00;73.20;;;;;;4889089;29;20040;-74
2021/01/21 01:15:51;;;;;;;7.97;3.50;;;5.90;72.50;;;;;;4894468;29;20542;-73
2021/01/21 01:18:17;;;;;;;6.67;3.37;;;6.00;72.10;;;;;;4891450;29;20033;-73
2021/01/21 01:20:43;;;;;;;6.97;3.30;;;6.00;71.80;;;;;;4868907;29;20064;-73
2021/01/21 01:23:09;;;;;;;7.13;3.80;;;6.00;71.90;;;;;;4873032;29;20077;-73
2021/01/21 01:25:35;;;;;;;5.00;3.17;;;6.00;72.30;;;;;;4870494;29;20446;-73
2021/01/21 01:28:02;;;;;;;7.03;3.57;;;5.90;73.40;;;;;;4871533;29;20032;-73
2021/01/21 01:30:28;;;;;;;6.40;3.47;;;5.80;74.10;;;;;;4871684;29;20036;-73
2021/01/21 01:32:54;;;;;;;5.27;3.60;;;5.80;74.10;;;;;;4877708;29;20033;-73
2021/01/21 01:35:19;;;;;;;6.47;3.40;;;5.80;74.00;;;;;;4876457;29;20546;-73
2021/01/21 01:37:45;;;;;;;6.10;3.60;;;5.70;74.20;;;;;;4877464;29;20033;-73
2021/01/21 01:40:13;;;;;;;6.47;3.30;;;5.70;74.60;;;;;;4899083;29;20109;-73
2021/01/21 01:42:40;;;;;;;8.33;3.80;;;5.70;75.10;;;;;;4899434;29;20068;-73
2021/01/21 01:45:07;;;;;;;5.87;3.30;;;5.70;75.10;;;;;;4899160;29;20084;-73
2021/01/21 01:47:33;;;;;;;7.17;3.47;;;5.70;75.00;;;;;;4898479;29;20286;-73
2021/01/21 01:50:00;;;;;;;6.17;3.37;;;5.70;74.80;;;;;;4899037;29;20036;-73
2021/01/21 01:52:27;;;;;;;6.20;3.07;;;5.70;75.10;;;;;;4898452;29;20375;-73
2021/01/21 01:54:53;;;;;;;6.13;4.17;;;5.70;75.20;;;;;;4899134;29;20052;-73
2021/01/21 01:57:20;;;;;;;8.27;4.00;;;5.70;74.70;;;;;;4899599;29;20049;-74
2021/01/21 01:59:48;;;;;;;8.10;3.80;;;5.70;74.70;;;;;;4900141;29;20060;-73
2021/01/21 02:02:14;;;;;;;10.47;3.97;;;5.70;74.70;;;;;;4900028;29;20028;-73
2021/01/21 02:04:39;;;;;;;6.87;3.83;;;5.70;74.80;;;;;;4898816;29;20039;-73
2021/01/21 02:07:05;;;;;;;7.87;3.47;;;5.70;75.00;;;;;;4898710;29;20033;-73
2021/01/21 02:09:31;;;;;;;7.03;3.80;;;5.70;74.90;;;;;;4898171;29;20028;-73
2021/01/21 02:12:14;;;;;;;9.57;3.93;;;5.70;75.00;;;;;;4899868;29;20543;-73
2021/01/21 02:15:30;;;;;;;6.63;3.27;;;5.70;75.00;;;;;;4900037;29;20076;-74
2021/01/21 02:18:23;;;;;;;7.27;3.80;;;5.60;75.90;;;;;;4867184;29;20398;-74
2021/01/21 02:21:07;;;;;;;10.37;3.67;;;5.60;76.50;;;;;;4913969;29;20052;-74
2021/01/21 02:24:10;;;;;;;8.57;4.00;;;5.70;75.70;;;;;;4899123;29;20041;-75
2021/01/21 02:26:42;;;;;;;6.33;3.60;;;5.70;74.90;;;;;;4899013;29;20029;-75
2021/01/21 02:29:37;;;;;;;7.88;3.42;;;5.60;75.00;;;;;;4898463;29;20056;-73
2021/01/21 02:32:06;;;;;;;6.13;3.57;;;5.70;75.10;;;;;;4892881;29;20045;-74
2021/01/21 02:34:51;;;;;;;5.63;3.20;;;5.70;76.10;;;;;;4897757;29;20088;-75
2021/01/21 02:37:19;;;;;;;4.93;3.30;;;5.60;76.30;;;;;;4897853;29;20028;-76
2021/01/21 02:39:49;;;;;;;6.93;3.57;;;5.60;76.50;;;;;;4898210;29;20029;-74
2021/01/21 02:42:15;;;;;;;5.70;3.13;;;5.60;76.30;;;;;;4899028;29;20070;-74
2021/01/21 02:44:41;;;;;;;5.80;3.23;;;5.60;76.40;;;;;;4898801;29;20111;-74
2021/01/21 02:47:07;;;;;;;6.87;3.60;;;5.60;76.40;;;;;;4898025;29;20028;-74
2021/01/21 02:49:33;;;;;;;5.77;3.30;;;5.60;77.00;;;;;;4898814;29;20104;-75
2021/01/21 02:52:25;;;;;;;8.07;3.33;;;5.60;76.30;;;;;;4897818;29;20478;-74
2021/01/21 02:54:53;;;;;;;4.78;2.70;;;5.70;76.10;;;;;;4893731;29;20040;-75
2021/01/21 02:57:42;;;;;;;7.50;3.60;;;5.70;74.10;;;;;;4897313;29;20467;-74
2021/01/21 03:00:10;;;;;;;6.73;3.00;;;5.70;74.70;;;;;;4897783;29;20033;-74
2021/01/21 03:02:43;;;;;;;4.80;2.90;;;5.70;74.20;;;;;;4897167;29;20044;-75
2021/01/21 03:05:09;;;;;;;6.47;3.10;;;5.80;74.90;;;;;;4897722;29;20032;-74
2021/01/21 03:07:36;;;;;;;7.10;3.00;;;5.70;74.60;;;;;;4898050;29;20029;-74
2021/01/21 03:10:05;;;;;;;9.03;3.30;;;5.70;74.70;;;;;;4898880;29;20067;-74
2021/01/21 03:12:30;;;;;;;6.17;3.10;;;5.70;75.20;;;;;;4896741;29;20132;-74
2021/01/21 03:14:56;;;;;;;4.80;2.97;;;5.70;74.80;;;;;;4898864;29;20107;-74
2021/01/21 03:17:24;;;;;;;6.07;3.67;;;5.70;75.20;;;;;;4897113;29;20132;-75
2021/01/21 03:19:50;;;;;;;5.80;3.10;;;5.60;76.10;;;;;;4896880;29;20132;-75
2021/01/21 03:22:16;;;;;;;6.83;3.03;;;5.60;76.50;;;;;;4897421;29;20127;-74
2021/01/21 03:24:41;;;;;;;4.40;3.20;;;5.50;76.00;;;;;;4898027;29;20036;-75
2021/01/21 03:27:07;;;;;;;6.97;3.47;;;5.60;76.10;;;;;;4898532;29;20140;-74
2021/01/21 03:29:33;;;;;;;5.60;2.80;;;5.50;76.30;;;;;;4896745;29;20064;-74
2021/01/21 03:31:58;;;;;;;6.73;3.00;;;5.50;76.10;;;;;;4864569;29;20085;-74
2021/01/21 03:34:24;;;;;;;5.93;2.80;;;5.50;76.20;;;;;;4859518;29;20392;-75
2021/01/21 03:36:50;;;;;;;4.40;2.70;;;5.50;76.00;;;;;;4860116;29;20077;-75
2021/01/21 03:39:16;;;;;;;4.87;2.53;;;5.50;75.90;;;;;;4859947;29;20399;-75
2021/01/21 03:41:41;;;;;;;6.43;3.00;;;5.50;74.20;;;;;;4860597;29;20033;-75
2021/01/21 03:44:07;;;;;;;4.23;2.63;;;5.70;72.70;;;;;;4861409;29;20049;-74
2021/01/21 03:46:33;;;;;;;5.83;2.80;;;5.80;71.60;;;;;;4859243;29;20498;-75
2021/01/21 03:48:59;;;;;;;5.50;2.63;;;6.00;70.50;;;;;;4859528;29;20037;-75
2021/01/21 03:51:25;;;;;;;5.57;2.80;;;6.10;69.90;;;;;;4859319;29;20038;-75
2021/01/21 03:53:51;;;;;;;5.03;2.47;;;6.20;69.60;;;;;;4859297;29;20026;-75
2021/01/21 03:56:17;;;;;;;4.73;2.60;;;6.20;69.60;;;;;;4859875;29;20041;-75
2021/01/21 03:58:42;;;;;;;5.57;2.60;;;6.10;71.10;;;;;;4860440;29;20488;-75
2021/01/21 04:01:08;;;;;;;5.23;2.80;;;6.00;72.50;;;;;;4859633;29;20116;-75
2021/01/21 04:03:33;;;;;;;5.07;2.70;;;5.90;73.20;;;;;;4858988;29;20033;-75
2021/01/21 04:06:00;;;;;;;8.13;3.00;;;5.80;73.40;;;;;;4860858;29;20448;-75
2021/01/21 04:08:26;;;;;;;6.47;2.70;;;5.80;73.10;;;;;;4859136;29;20047;-75
2021/01/21 04:10:51;;;;;;;6.10;2.90;;;5.80;72.40;;;;;;4860478;29;20112;-75
2021/01/21 04:13:17;;;;;;;5.80;2.70;;;5.90;73.10;;;;;;4859542;29;20479;-75
2021/01/21 04:15:43;;;;;;;5.37;2.60;;;5.80;73.70;;;;;;4858785;29;20030;-75
2021/01/21 04:18:08;;;;;;;5.77;3.00;;;5.80;74.30;;;;;;4860288;29;20046;-75
2021/01/21 04:20:34;;;;;;;4.90;2.63;;;5.80;74.50;;;;;;4858599;29;20078;-75
2021/01/21 04:22:59;;;;;;;5.50;2.97;;;5.70;74.80;;;;;;4859266;29;20120;-74
2021/01/21 04:25:25;;;;;;;3.70;2.30;;;5.70;75.40;;;;;;4858719;29;20496;-74
2021/01/21 04:27:50;;;;;;;4.87;2.53;;;5.60;75.20;;;;;;4860141;29;20021;-73
2021/01/21 04:30:16;;;;;;;4.37;2.30;;;5.60;74.80;;;;;;4860463;29;20524;-73
2021/01/21 04:32:42;;;;;;;4.77;2.33;;;5.60;75.40;;;;;;4859828;29;20033;-73
2021/01/21 04:35:08;;;;;;;5.43;2.43;;;5.50;75.00;;;;;;4858930;29;20048;-74
2021/01/21 04:37:34;;;;;;;3.77;2.67;;;5.50;75.10;;;;;;4858544;29;20030;-74
2021/01/21 04:39:59;;;;;;;5.10;2.53;;;5.50;74.60;;;;;;4859238;29;20041;-74
2021/01/21 04:42:25;;;;;;;3.27;2.10;;;5.50;74.40;;;;;;4858282;29;20499;-75
2021/01/21 04:44:51;;;;;;;5.03;2.50;;;5.50;74.50;;;;;;4859082;29;20048;-74
2021/01/21 04:47:17;;;;;;;4.60;2.23;;;5.50;74.70;;;;;;4860248;29;20034;-74
2021/01/21 04:49:44;;;;;;;2.67;1.77;;;5.60;72.50;;;;;;4858454;29;20060;-74
2021/01/21 04:52:13;;;;;;;2.37;1.70;;;5.80;71.30;;;;;;4858952;29;20042;-74
2021/01/21 04:54:51;;;;;;;2.43;1.33;;;6.00;69.00;;;;;;4858442;29;20052;-74
2021/01/21 04:57:23;;;;;;;3.87;1.30;;;6.30;67.60;;;;;;4860245;29;20502;-73
2021/01/21 04:59:50;;;;;;;3.78;1.65;;;6.50;66.80;;;;;;4858404;29;20030;-74
2021/01/21 05:02:16;;;;;;;3.33;1.30;;;6.60;65.80;;;;;;4858863;29;20547;-74
2021/01/21 05:04:42;;;;;;;5.40;1.50;;;6.80;65.00;;;;;;4861104;29;20034;-74
2021/01/21 05:07:08;;;;;;;3.67;1.40;;;6.90;64.70;;;;;;4863506;29;20045;-74
2021/01/21 05:09:35;;;;;;;3.53;1.33;;;7.00;64.20;;;;;;4863205;29;20034;-74
2021/01/21 05:12:01;;;;;;;3.40;1.40;;;7.00;63.70;;;;;;4863658;29;20471;-74
2021/01/21 05:14:27;;;;;;;2.30;1.30;;;7.20;63.00;;;;;;4861788;29;20036;-74
2021/01/21 05:16:53;;;;;;;2.80;1.30;;;7.30;62.50;;;;;;4862339;29;20029;-74
2021/01/21 05:19:18;;;;;;;2.13;1.00;;;7.40;62.00;;;;;;4870537;29;20121;-74
2021/01/21 05:21:44;;;;;;;2.03;1.10;;;7.40;61.60;;;;;;4864690;29;20029;-74
2021/01/21 05:24:11;;;;;;;4.93;1.20;;;7.50;61.50;;;;;;4865358;29;20029;-74
2021/01/21 05:26:41;;;;;;;1.90;1.10;;;7.50;61.10;;;;;;4864676;29;20493;-74
2021/01/21 05:29:09;;;;;;;3.10;1.17;;;7.70;60.30;;;;;;4865255;29;20029;-73
2021/01/21 05:31:35;;;;;;;1.43;0.80;;;7.80;59.70;;;;;;4881364;29;20033;-75
2021/01/21 05:34:04;;;;;;;3.87;1.00;;;7.90;59.70;;;;;;4865085;29;20116;-74
2021/01/21 05:36:35;;;;;;;4.07;0.90;;;8.10;59.00;;;;;;4864466;29;20116;-74
2021/01/21 05:39:05;;;;;;;3.20;0.90;;;8.20;58.70;;;;;;4881848;29;20029;-75
2021/01/21 05:41:32;;;;;;;3.17;0.80;;;8.30;57.80;;;;;;4864436;29;20059;-75
2021/01/21 05:44:01;;;;;;;1.43;0.77;;;8.50;57.10;;;;;;4864984;29;20128;-74
2021/01/21 05:46:27;;;;;;;3.33;0.53;;;8.70;57.30;;;;;;4864867;29;20031;-78
2021/01/21 05:48:53;;;;;;;1.40;0.60;;;8.80;56.30;;;;;;4864696;29;20032;-74
2021/01/21 05:51:19;;;;;;;2.27;0.50;;;9.10;55.30;;;;;;4881315;29;20497;-75
2021/01/21 05:53:44;;;;;;;0.87;0.50;;;9.30;54.80;;;;;;4881225;29;20037;-75
2021/01/21 05:56:11;;;;;;;2.03;0.40;;;9.50;54.60;;;;;;4865055;29;20474;-75
2021/01/21 05:58:38;;;;;;;0.40;0.40;;;9.60;54.50;;;;;;4864155;29;20040;-76
2021/01/21 06:01:08;;;;;;;0.97;0.60;;;9.70;54.40;;;;;;4864764;29;20029;-76
2021/01/21 06:03:34;;;;;;;0.93;0.50;;;9.80;54.00;;;;;;4864231;29;20081;-76
2021/01/21 06:06:07;;;;;;;0.50;0.22;;;10.00;53.30;;;;;;4864867;29;20478;-75
2021/01/21 06:08:43;;;;;;;0.70;0.40;;;10.50;52.10;;;;;;4864232;29;20029;-76
2021/01/21 06:11:10;;;;;;;1.23;0.23;;;10.60;52.10;;;;;;4864689;29;20029;-75
2021/01/21 06:13:43;;;;;;;1.10;0.43;;;10.80;51.80;;;;;;4880743;29;20065;-76
2021/01/21 06:16:10;;;;;;;0.98;0.40;;;11.00;51.50;;;;;;4880823;29;20040;-76
2021/01/21 06:18:36;;;;;;;1.63;0.38;;;11.20;51.30;;;;;;4863559;29;20057;-76
2021/01/21 06:21:03;;;;;;;1.08;0.30;;;11.40;50.30;;;;;;4864347;29;20065;-74
2021/01/21 06:23:32;;;;;;;3.30;0.40;;;11.50;51.10;;;;;;4864453;29;20034;-76
2021/01/21 06:25:59;;;;;;;0.35;0.22;;;11.40;50.70;;;;;;4864909;29;20085;-77
2021/01/21 06:28:26;;;;;;;0.80;0.30;;;11.40;51.10;;;;;;4864384;29;20074;-74
2021/01/21 06:30:55;;;;;;;1.05;0.30;;;11.50;51.30;;;;;;4863779;29;20029;-74
2021/01/21 06:33:28;;;;;;;0.63;0.20;;;11.60;51.30;;;;;;4864233;29;20531;-74
2021/01/21 06:36:05;;;;;;;0.93;0.30;;;11.60;52.00;;;;;;4880583;29;20036;-74
2021/01/21 06:38:37;;;;;;;0.63;0.38;;;11.60;52.00;;;;;;4880656;29;20078;-75
2021/01/21 06:41:07;;;;;;;1.38;0.30;;;11.60;52.10;;;;;;4864424;29;20055;-75
2021/01/21 06:43:37;;;;;;;0.82;0.40;;;11.60;52.50;;;;;;4863483;29;20033;-75
2021/01/21 06:46:03;;;;;;;0.38;0.25;;;11.60;53.00;;;;;;4864327;29;20040;-75
2021/01/21 06:48:29;;;;;;;1.70;0.38;;;11.70;53.10;;;;;;4864103;29;20475;-74
2021/01/21 06:50:56;;;;;;;0.73;0.30;;;11.70;53.20;;;;;;4863507;29;20089;-75
2021/01/21 06:53:22;;;;;;;2.80;0.40;;;11.80;53.50;;;;;;4880221;29;20068;-75
2021/01/21 06:55:50;;;;;;;0.55;0.20;;;11.80;53.80;;;;;;4863272;29;20119;-74
2021/01/21 06:58:55;;;;;;;1.17;0.40;;;11.80;53.70;;;;;;4863754;29;20033;-75
2021/01/21 07:01:30;;;;;;;0.38;0.30;;;11.80;53.80;;;;;;4863958;29;20036;-75
2021/01/21 07:03:57;;;;;;;1.98;0.30;;;11.90;53.90;;;;;;4863187;29;20036;-75
2021/01/21 07:06:22;;;;;;;1.38;0.30;;;11.90;53.90;;;;;;4880317;29;20108;-76
2021/01/21 07:09:04;;;;;;;1.67;0.30;;;11.80;54.40;;;;;;4863245;29;20452;-76
2021/01/21 07:11:32;;;;;;;0.40;0.20;;;11.90;54.30;;;;;;4863790;29;20033;-77
2021/01/21 07:13:58;;;;;;;0.43;0.22;;;11.80;55.20;;;;;;4880361;29;20034;-76
2021/01/21 07:16:24;;;;;;;1.20;0.38;;;11.90;55.20;;;;;;4863491;29;20039;-75
2021/01/21 07:18:51;;;;;;;2.42;0.25;;;11.90;55.40;;;;;;4862559;29;20136;-76
2021/01/21 07:21:23;;;;;;;0.50;0.20;;;11.90;55.30;;;;;;4863425;29;20033;-75
2021/01/21 07:23:51;;;;;;;;;;;12.00;55.30;;;;;;4879985;29;20029;-75
2021/01/21 07:26:36;;;;;;;0.35;0.22;;;12.00;55.40;;;;;;4880010;29;19959;-76
2021/01/21 07:29:19;;;;;;;0.85;0.20;;;12.00;55.60;;;;;;4862631;29;20033;-76
2021/01/21 07:31:53;;;;;;;0.40;0.20;;;12.00;55.60;;;;;;4863132;29;20109;-76
2021/01/21 07:34:42;;;;;;;1.10;0.65;;;12.00;55.60;;;;;;4880027;29;20033;-76
2021/01/21 07:37:29;;;;;;;0.50;0.20;;;12.00;55.80;;;;;;4880147;29;20467;-76
2021/01/21 07:40:07;;;;;;;1.25;0.20;;;12.00;55.40;;;;;;4879626;29;20104;-76
2021/01/21 07:42:38;;;;;;;0.70;0.17;;;12.10;54.80;;;;;;4863414;29;20132;-75
2021/01/21 07:45:14;;;;;;;0.47;0.15;;;12.10;54.60;;;;;;4879701;29;20043;-76
2021/01/21 07:47:41;;;;;;;1.85;0.30;;;12.10;54.80;;;;;;4879463;29;20038;-76
2021/01/21 07:50:19;;;;;;;0.85;0.20;;;12.10;55.40;;;;;;4862749;29;20032;-76
2021/01/21 07:52:49;;;;;;;0.65;0.30;;;12.10;55.20;;;;;;4862411;29;20037;-76
2021/01/21 07:55:23;;;;;;;2.10;0.38;;;12.20;55.00;;;;;;4863046;29;20029;-76
2021/01/21 07:57:49;;;;;;;0.60;0.28;;;12.20;55.00;;;;;;4862586;29;20081;-76
2021/01/21 08:00:15;;;;;;;0.57;0.22;;;12.20;55.70;;;;;;4863214;29;20379;-76
2021/01/21 08:02:48;;;;;;;0.22;0.20;;;12.20;55.70;;;;;;4862212;29;20068;-74
2021/01/21 08:05:15;;;;;;;0.60;0.20;;;12.20;55.90;;;;;;4879619;29;20029;-76
2021/01/21 08:07:57;;;;;;;0.20;0.15;;;12.30;56.00;;;;;;4862396;29;20025;-76
2021/01/21 08:10:25;;;;;;;1.20;0.15;;;12.20;56.00;;;;;;4879461;29;20029;-76
2021/01/21 08:12:57;;;;;;;0.50;0.30;;;12.30;56.20;;;;;;4862196;29;20037;-76
2021/01/21 08:15:24;;;;;;;0.55;0.10;;;12.30;56.60;;;;;;4862641;29;20040;-75
2021/01/21 08:17:51;;;;;;;2.40;0.30;;;12.30;56.70;;;;;;4862043;29;20039;-76
2021/01/21 08:20:18;;;;;;;1.70;0.50;;;12.20;56.90;;;;;;4862303;29;20064;-76
2021/01/21 08:22:53;;;;;;;0.50;0.20;;;12.10;56.90;;;;;;4861846;29;20471;-76
2021/01/21 08:25:19;;;;;;;0.93;0.20;;;12.10;57.10;;;;;;4862392;29;20120;-74
2021/01/21 08:27:48;;;;;;;1.02;0.10;;;12.10;57.50;;;;;;4878216;29;20419;-75
2021/01/21 08:30:26;;;;;;;0.60;0.20;;;12.10;57.60;;;;;;4882364;29;20402;-74
2021/01/21 08:33:18;;;;;;;0.22;0.10;;;12.10;58.00;;;;;;4893442;29;20032;-75
2021/01/21 08:35:46;;;;;;;0.10;0.10;;;12.10;58.00;;;;;;4880305;29;20028;-75
2021/01/21 08:38:14;;;;;;;0.85;0.20;;;12.10;58.30;;;;;;4888864;29;20387;-75
2021/01/21 08:40:42;;;;;;;0.38;0.20;;;12.00;58.30;;;;;;4878265;29;20576;-75
2021/01/21 08:43:09;;;;;;;2.03;0.30;;;12.10;58.30;;;;;;4899392;29;20043;-75
2021/01/21 08:45:34;;;;;;;0.30;0.28;;;12.10;58.10;;;;;;4881827;29;20035;-74
2021/01/21 08:48:00;;;;;;;0.88;0.40;;;12.20;58.10;;;;;;4893772;29;20024;-74
2021/01/21 08:50:40;;;;;;;0.20;0.20;;;12.20;58.10;;;;;;4904730;29;20478;-76
2021/01/21 08:53:09;;;;;;;0.90;0.25;;;12.30;58.10;;;;;;4899270;29;20036;-75
2021/01/21 08:55:40;;;;;;;0.13;0.13;;;12.40;58.00;;;;;;4890642;29;20320;-74
2021/01/21 08:58:07;;;;;;;0.68;0.30;;;12.40;57.60;;;;;;4888396;29;20036;-75
2021/01/21 09:00:33;;;;;;;3.72;0.20;;;12.50;57.20;;;;;;4889262;29;20036;-75
2021/01/21 09:03:00;;;;;;;0.60;0.20;;;12.60;57.00;;;;;;4899429;29;20084;-75
2021/01/21 09:05:26;;;;;;;3.15;0.40;;;12.60;57.20;;;;;;4877425;29;20076;-75
2021/01/21 09:08:00;;;;;;;0.40;0.30;;;12.70;56.70;;;;;;4872998;29;20089;-75
2021/01/21 09:10:26;;;;;;;0.98;0.10;;;12.70;56.70;;;;;;4865834;29;20080;-75
2021/01/21 09:13:01;;;;;;;0.38;0.20;;;12.80;56.40;;;;;;4864667;29;20029;-75
2021/01/21 09:15:26;;;;;;;0.20;0.10;;;13.00;56.60;;;;;;4865618;29;20436;-75
2021/01/21 09:18:05;;;;;;;1.30;0.22;;;13.00;55.90;;;;;;4864790;29;20033;-76
2021/01/21 09:20:32;;;;;;;0.65;0.20;;;13.10;55.90;;;;;;4872080;29;20057;-75
2021/01/21 09:23:11;;;;;;;2.72;0.32;;;13.10;56.10;;;;;;4900363;29;20485;-75
2021/01/21 09:25:37;;;;;;;0.68;0.20;;;13.20;55.80;;;;;;4884131;29;20060;-75
2021/01/21 09:28:03;;;;;;;0.50;0.20;;;13.20;56.30;;;;;;4883478;29;20056;-76
2021/01/21 09:30:29;;;;;;;0.22;0.15;;;13.20;56.20;;;;;;4883376;29;20064;-75
2021/01/21 09:32:55;;;;;;;0.10;0.10;;;13.30;55.60;;;;;;4883298;29;20040;-75
2021/01/21 09:35:22;;;;;;;1.20;0.70;;;13.30;55.60;;;;;;4883883;29;20510;-75
2021/01/21 09:37:53;;;;;;;0.20;0.20;;;13.30;56.00;;;;;;4883171;29;20033;-76
2021/01/21 09:40:22;;;;;;;0.45;0.20;;;13.30;56.40;;;;;;4894244;29;20103;-75
2021/01/21 09:42:47;;;;;;;3.10;0.10;;;13.30;56.40;;;;;;4872854;29;20477;-74
2021/01/21 09:45:13;;;;;;;1.15;0.30;;;13.20;56.60;;;;;;4879644;29;20025;-75
2021/01/21 09:47:39;;;;;;;0.38;0.10;;;13.20;56.60;;;;;;4879237;29;20025;-74
2021/01/21 09:50:09;;;;;;;0.25;0.17;;;13.20;56.90;;;;;;4888324;29;20372;-74
2021/01/21 09:52:36;;;;;;;0.73;0.20;;;13.20;57.30;;;;;;4877739;29;20032;-74
2021/01/21 09:55:04;;;;;;;1.63;0.17;;;13.10;57.40;;;;;;4891094;29;20051;-74
2021/01/21 09:57:29;;;;;;;0.93;0.40;;;13.10;58.60;;;;;;4895492;29;20063;-75
2021/01/21 09:59:55;;;;;;;0.52;0.40;;;13.00;59.50;;;;;;4901110;29;20264;-74
2021/01/21 10:02:24;;;;;;;0.45;0.20;;;12.80;61.10;;;;;;4889092;29;20036;-76
2021/01/21 10:04:50;;;;;;;0.13;0.13;;;12.80;61.40;;;;;;4873612;29;20037;-76
2021/01/21 10:07:16;;;;;;;0.93;0.40;;;12.60;61.30;;;;;;4892931;29;20040;-75
2021/01/21 10:09:42;;;;;;;0.50;0.25;;;12.60;61.80;;;;;;4884506;29;20082;-78
2021/01/21 10:12:08;;;;;;;0.98;0.40;;;12.60;61.90;;;;;;4876316;29;20390;-76
2021/01/21 10:14:34;;;;;;;2.15;0.50;;;12.60;62.20;;;;;;4889405;29;20107;-76
2021/01/21 10:17:02;;;;;;;0.77;0.30;;;12.50;63.30;;;;;;4875746;29;20033;-76
2021/01/21 10:19:28;;;;;;;0.60;0.20;;;12.50;64.70;;;;;;4873922;29;20052;-77
2021/01/21 10:21:54;;;;;;;0.55;0.40;;;12.50;64.20;;;;;;4874728;29;20052;-77
2021/01/21 10:24:21;;;;;;;0.25;0.17;;;12.50;63.70;;;;;;4876248;29;20466;-76
2021/01/21 10:26:47;;;;;;;0.30;0.30;;;12.50;63.70;;;;;;4889987;29;20459;-77
2021/01/21 10:29:13;;;;;;;0.52;0.30;;;12.40;63.60;;;;;;4875955;29;20495;-75
2021/01/21 10:31:40;;;;;;;2.90;0.30;;;12.50;63.60;;;;;;4899275;29;20066;-75
2021/01/21 10:34:07;;;;;;;0.47;0.20;;;12.40;63.40;;;;;;4882124;29;20123;-76
2021/01/21 10:36:33;;;;;;;0.20;0.20;;;12.40;62.80;;;;;;4882560;29;20029;-76
2021/01/21 10:38:59;;;;;;;0.82;0.20;;;12.40;62.70;;;;;;4882170;29;20024;-76
2021/01/21 10:41:25;;;;;;;0.38;0.30;;;12.40;62.00;;;;;;4883518;29;20111;-76
2021/01/21 10:43:51;;;;;;;0.40;0.20;;;12.50;61.90;;;;;;4889278;29;20040;-77
2021/01/21 10:46:17;;;;;;;0.88;0.20;;;12.60;61.70;;;;;;4882318;29;20031;-77
2021/01/21 10:48:42;;;;;;;0.32;0.10;;;12.60;61.40;;;;;;4899117;29;20431;-76
2021/01/21 10:51:08;;;;;;;0.50;0.13;;;12.70;61.00;;;;;;4899442;29;20096;-75
2021/01/21 10:53:34;;;;;;;0.10;0.10;;;12.70;61.30;;;;;;4882333;29;20398;-77
2021/01/21 10:56:00;;;;;;;0.40;0.20;;;12.70;61.20;;;;;;4881761;29;20025;-76
2021/01/21 10:58:25;;;;;;;0.50;0.30;;;12.70;60.70;;;;;;4882260;29;20045;-77
2021/01/21 11:00:51;;;;;;;0.88;0.20;;;12.80;60.50;;;;;;4882223;29;20028;-77
2021/01/21 11:03:17;;;;;;;0.50;0.20;;;12.80;60.50;;;;;;4881641;29;20042;-76
2021/01/21 11:05:44;;;;;;;0.55;0.20;;;12.80;60.90;;;;;;4872551;29;20033;-76
2021/01/21 11:08:10;;;;;;;0.30;0.10;;;13.00;60.60;;;;;;4903589;29;20032;-75
2021/01/21 11:10:37;;;;;;;0.30;0.20;;;12.90;60.60;;;;;;4904418;29;20032;-76
2021/01/21 11:13:03;;;;;;;0.70;0.10;;;12.90;60.70;;;;;;4885391;29;20040;-78
2021/01/21 11:15:29;;;;;;;0.52;0.20;;;13.00;60.30;;;;;;4892813;29;20039;-78
2021/01/21 11:17:55;;;;;;;0.50;0.20;;;13.00;60.80;;;;;;4892683;29;20095;-76
2021/01/21 11:20:21;;;;;;;0.32;0.17;;;12.90;60.50;;;;;;4875466;29;20515;-77
2021/01/21 11:22:47;;;;;;;0.55;0.20;;;12.90;60.90;;;;;;4891183;29;20033;-77
2021/01/21 11:25:13;;;;;;;0.85;0.20;;;12.80;61.00;;;;;;4887383;29;20363;-76
2021/01/21 11:27:39;;;;;;;0.47;0.20;;;12.80;61.30;;;;;;4894151;29;20123;-77
2021/01/21 11:30:10;;;;;;;1.38;0.20;;;12.80;61.20;;;;;;4881265;29;20123;-80
2021/01/21 11:32:36;;;;;;;0.47;0.20;;;12.90;61.40;;;;;;4881769;29;20033;-78
2021/01/21 11:35:02;;;;;;;0.85;0.20;;;12.90;61.80;;;;;;4895556;29;20076;-82
2021/01/21 11:37:28;;;;;;;0.20;0.20;;;12.90;62.20;;;;;;4880472;29;20126;-78
2021/01/21 11:39:55;;;;;;;0.50;0.20;;;12.80;61.80;;;;;;4878193;29;20077;-78
2021/01/21 11:42:21;;;;;;;0.45;0.20;;;12.80;62.10;;;;;;4878373;29;20123;-78
2021/01/21 11:44:46;;;;;;;0.63;0.30;;;12.70;62.20;;;;;;4887747;29;20165;-78
2021/01/21 11:47:12;;;;;;;1.00;0.20;;;12.60;62.90;;;;;;4883933;29;20044;-78
2021/01/21 11:49:38;;;;;;;0.50;0.20;;;12.60;63.10;;;;;;4883780;29;20123;-78
2021/01/21 11:52:04;;;;;;;1.15;0.50;;;12.50;63.60;;;;;;4885169;29;20033;-77
2021/01/21 11:54:30;;;;;;;1.52;0.30;;;12.50;63.80;;;;;;4894523;29;20036;-77
2021/01/21 11:56:56;;;;;;;0.20;0.20;;;12.50;64.10;;;;;;4882019;29;20029;-74
2021/01/21 11:59:21;;;;;;;2.15;0.20;;;12.50;64.20;;;;;;4892288;29;20056;-73
2021/01/21 12:01:47;;;;;;;0.60;0.30;;;12.50;64.40;;;;;;4890879;29;20068;-76
2021/01/21 12:04:13;;;;;;;1.17;0.35;;;12.50;64.90;;;;;;4890848;29;20029;-77
2021/01/21 12:06:40;;;;;;;0.70;0.47;;;12.40;65.30;;;;;;4885339;29;20119;-76
2021/01/21 12:09:06;;;;;;;1.30;0.50;;;12.40;65.70;;;;;;4879924;29;20084;-76
2021/01/21 12:11:32;;;;;;;0.65;0.28;;;12.30;67.40;;;;;;4895226;29;20032;-76
2021/01/21 12:13:58;;;;;;;1.50;0.40;;;12.10;68.60;;;;;;4882575;29;20380;-75
2021/01/21 12:16:24;;;;;;;2.25;0.80;;;12.00;69.50;;;;;;4878963;29;20033;-76
2021/01/21 12:18:50;;;;;;;1.17;0.50;;;11.90;70.50;;;;;;4889588;29;20051;-76
2021/01/21 12:21:16;;;;;;;1.17;0.57;;;11.80;71.00;;;;;;4898485;29;20040;-78
2021/01/21 12:23:42;;;;;;;1.85;0.45;;;11.80;71.70;;;;;;4899063;29;20036;-77
2021/01/21 12:26:08;;;;;;;2.25;0.40;;;11.60;72.10;;;;;;4894376;29;20052;-75
2021/01/21 12:28:34;;;;;;;0.80;0.30;;;11.60;72.80;;;;;;4888108;29;20111;-77
2021/01/21 12:31:00;;;;;;;1.45;0.40;;;11.50;73.20;;;;;;4885772;29;20119;-77
2021/01/21 12:33:26;;;;;;;1.52;0.30;;;11.40;73.70;;;;;;4873858;29;20044;-76
2021/01/21 12:35:51;;;;;;;0.20;0.20;;;11.30;74.00;;;;;;4895889;29;20343;-76
2021/01/21 12:38:17;;;;;;;0.40;0.40;;;11.20;74.20;;;;;;4890561;29;20020;-75
2021/01/21 12:40:43;;;;;;;1.13;0.28;;;11.20;74.70;;;;;;4878031;29;20466;-74
2021/01/21 12:43:08;;;;;;;0.35;0.20;;;11.10;74.70;;;;;;4876735;29;20047;-75
2021/01/21 12:45:34;;;;;;;0.35;0.20;;;10.90;74.30;;;;;;4891641;29;20033;-75
2021/01/21 12:48:00;;;;;;;0.70;0.30;;;10.80;74.70;;;;;;4888880;29;20459;-76
2021/01/21 12:50:25;;;;;;;0.47;0.20;;;10.60;75.20;;;;;;4875724;29;20036;-75
2021/01/21 12:52:51;;;;;;;0.40;0.10;;;10.40;75.80;;;;;;4901608;29;20040;-76
2021/01/21 12:55:17;;;;;;;1.17;0.20;;;10.30;76.50;;;;;;4871627;29;20446;-75
2021/01/21 12:57:43;;;;;;;7.47;0.60;;;10.20;77.00;;;;;;4884474;29;20028;-75